Joshua Tree National Park, CA

4:28 PM PST on February 10, 2016 (GMT -0800)
29 Palms: HWY 62 Near Utah Trail | | Change Station
CLOSE
Current Station
Personal Weather Station
Location: Twentynine Palms, CA
Elevation: 1962 ft
Nearby Weather Stations

Elev 1962 ft 34.13 °N, 116.03 °W | Updated 4 seconds ago

Partly Cloudy
Partly Cloudy
76.1 °F
Feels Like 75 °F
N
0.0
Wind Variable Wind from ENE
Gusts 0.0 mph

Today
High -- | Low -- °F
--% Chance of Precip.
Yesterday
High -- | Low -- °F
Precip. -- in
Pressure 30.17 in
Visibility 10.0 miles
Clouds Scattered Clouds 22000 ft
Heat Index 75 °F
Dew Point 16 °F
Humidity 10%
Rainfall 0.00 in
Snow Depth Not available.
6:34 AM 5:22 PM
Waxing Crescent, 8% visible
METAR KNXP 102356Z 00000KT 10SM SCT220 24/M07 A3024 RMK AO2 SLP216 LAST T02441072 10250 20150 56016
Pressure 30.17 in
Visibility 10.0 miles
Clouds Scattered Clouds 22000 ft
Heat Index 75 °F
Dew Point 16 °F
Humidity 10%
Rainfall 0.00 in
Snow Depth Not available.
6:34 AM 5:22 PM
Waxing Crescent, 8% visible
METAR KNXP 102356Z 00000KT 10SM SCT220 24/M07 A3024 RMK AO2 SLP216 LAST T02441072 10250 20150 56016

10-Day Weather Forecast

Almanac

Astronomy

Feb. 10, 2016 Rise Set
Actual Time
Civil Twilight
Nautical Twilight
Astronomical Twilight
Moon
Length of Visible Light
Length of Day
Tomorrow will be .
, % of the Moon is Illuminated

Today's Extremes

State Highs State Lows

Community

WunderPhotos

Upload Photos

1,891,944 photos uploaded!

WunderBlog® & News

Nearby

Air Quality

  Air Quality AQ Index Pollutant
Not available.

Snow Depth

Station Depth Elevation

Earthquake Activity

City Distance Mag. Time & Date
Minimum magnitude displayed is 2.5.

Coastal Water Temperatures

Place Temperature

Stations

Nearby Weather Stations

Station Location Temp. Windchill Dew Point Humidity Wind Precip. Elev Updated Type
                   

Watches & Warnings

There are currently no watches in effect.